EST,Max TemperatureF,Mean TemperatureF,Min TemperatureF,Max Dew PointF,MeanDew PointF,Min DewpointF,Max Humidity, Mean Humidity, Min Humidity, Max Sea Level PressureIn, Mean Sea Level PressureIn, Min Sea Level PressureIn, Max VisibilityMiles, Mean VisibilityMiles, Min VisibilityMiles, Max Wind SpeedMPH, Mean Wind SpeedMPH, Max Gust SpeedMPH,PrecipitationIn, CloudCover, Events, WindDirDegrees
2013-12-1,44,39,34,34,29,23,82,64,45,30.10,30.06,30.02,10,9,5,10,4,14,0.00,7,,360
2013-12-2,41,35,29,29,25,22,92,72,51,30.00,29.93,29.88,10,9,4,12,5,14,0.00,6,,104
2013-12-3,36,34,32,34,29,21,92,77,61,29.88,29.82,29.77,10,5,2,20,11,25,0.40,8,Rain-Snow,101
2013-12-4,58,47,36,52,43,34,93,87,80,29.83,29.67,29.51,8,2,0,25,11,33,0.07,8,Fog-Rain,126
2013-12-5,54,41,27,46,26,15,80,68,56,30.19,29.89,29.56,10,10,7,28,16,37,0.00,7,,265
2013-12-6,27,24,21,16,13,10,77,69,60,30.45,30.33,30.21,10,7,2,16,10,21,0.04,8,Snow,327
2013-12-7,21,17,13,12,10,7,76,66,56,30.65,30.58,30.43,10,6,2,16,9,21,T,8,Snow,327
2013-12-8,21,18,15,17,13,8,84,73,62,30.61,30.27,29.96,10,5,0,17,9,22,0.12,8,Snow,85
2013-12-9,31,24,16,27,17,5,85,69,52,30.14,29.95,29.83,10,6,2,28,15,40,0.07,8,Rain-Snow,255
2013-12-10,23,19,15,16,11,5,77,67,57,30.20,30.01,29.89,10,4,0,33,16,41,0.03,8,Snow,258
2013-12-11,21,17,13,14,8,1,77,68,58,30.48,30.34,30.22,10,3,0,21,12,26,0.06,8,Snow,304
2013-12-12,27,20,13,18,10,3,80,70,59,30.47,30.30,30.16,10,5,1,25,13,36,0.04,8,Snow,259
2013-12-13,28,25,21,19,15,12,71,64,57,30.27,30.21,30.16,10,10,10,17,8,23,0.00,8,,47
2013-12-14,22,19,16,16,13,9,84,76,68,30.26,30.11,29.94,10,4,1,21,12,28,0.13,8,Snow,64
2013-12-15,27,22,16,21,11,5,81,69,56,30.08,29.93,29.82,10,6,0,22,12,30,0.04,8,Snow,301
2013-12-16,23,16,9,14,11,5,80,67,54,30.17,30.07,29.98,10,6,2,15,7,18,0.04,7,Snow,142
2013-12-17,34,27,19,27,23,15,88,72,56,29.99,29.91,29.82,10,5,0,21,13,29,0.13,8,Fog-Snow,267
2013-12-18,38,32,26,29,19,11,75,61,46,30.13,29.99,29.81,10,10,9,30,14,37,T,7,Snow,233
2013-12-19,39,33,27,31,27,25,92,78,64,29.98,29.91,29.81,10,7,1,26,8,32,0.01,6,Rain,47
2013-12-20,32,31,30,29,27,26,92,89,85,29.88,29.81,29.77,10,8,2,15,8,20,0.13,8,Rain,50
2013-12-21,32,31,29,30,28,24,92,89,85,29.87,29.82,29.73,10,4,0,16,7,23,0.03,8,Fog-Snow,56
2013-12-22,31,28,25,27,25,21,92,84,75,30.04,29.77,29.60,10,6,0,23,8,28,0.31,8,Fog-Rain-Snow,22
2013-12-23,26,23,20,21,18,15,88,81,74,30.31,30.23,30.06,10,4,0,21,6,26,0.16,8,Fog-Snow,225
2013-12-24,23,19,14,18,13,10,84,79,73,30.51,30.42,30.26,10,7,2,18,6,23,0.02,7,Snow,109
2013-12-25,29,22,15,25,20,10,85,77,69,30.42,30.16,30.03,10,3,0,22,12,26,0.38,8,Fog-Snow,226
2013-12-26,33,28,23,29,21,12,92,77,62,30.24,30.13,30.01,10,5,1,23,11,30,0.33,8,Snow,259
2013-12-27,41,31,20,32,27,18,92,81,70,30.29,30.18,30.02,10,8,4,24,10,30,T,7,,188
2013-12-28,43,37,31,34,32,29,89,80,70,30.06,29.97,29.83,10,10,8,23,14,31,0.00,0,,213
2013-12-29,41,30,19,33,23,10,82,72,62,30.12,29.86,29.73,10,9,5,24,15,30,T,6,Snow,324
2013-12-30,19,17,15,10,7,3,74,67,59,30.30,30.20,30.12,10,6,1,16,7,21,0.05,8,Snow,290
2013-12-31,18,16,14,10,7,5,80,71,61,30.37,30.20,30.08,10,4,1,17,11,24,0.10,8,Snow,290